Saint James, Louisiana
Current Conditions -  °F | °C
As of 9:15 AM on Monday 24 Nov 2014 (Local Time) from KL38 Reporting Station
Clear Clear  
Wind Chill: 63°   Ceiling: Unl
Heat Index: 63°   Visibility: 10mi
Dew Point: 55°   Wind: 15mph
Humidity: 75%   Direction: 330°NNW
Pressure: 29.92"   Gusts: 18mph
Location:  29.98°N, 90.83°W
Report Text: KL38 241515Z AUTO 33013G16KT 10SM CLR 17/13 A2992 RMK AO2 T01720127
Loading
Personal Weather Stations






























Interactive Weather Map New forecast layout! Learn more

10-Day Weather Forecast

Advertisements
Track Severe Weather on mobile